الصفحة الرئيسية
METAR-TAF:

METAR-TAF

مطار :

مطار مرسى علم الدولي

مرسى علم, مصر

دائرة عرض: 25-33-25N, خط طول: 34-35-01E, ارتفاع: 77 متر

مراقبة الطقس الحالي

تاريخ ووقت الإصدار 51 دقيقة قبل الساعة 22:00UTC
ريح 12 عقدة من الجنوب الشرقي
درجة الحرارة 21°درجة مئوية
الرطوبة 64%
ضغط 1003 hPa
الرؤية 10 كم أو أكثر
الغيوم لا تقل 1500 م ولا وجود لمزنة ركامية السحاب الأسود

METAR: HEMA 232200Z 14012KT CAVOK 21/14 Q1003 NOSIG

زمن: 00:51 (22:51 UTC)

توقعات

تاريخ ووقت الإصدار 5ساعات و 51 دقيقة قبل الساعة 17:00UTC
التوقعات صالحة من23 الساعة 18 UTC إلى 24 الساعة 24 UTC
ريح 8 عقدة من الشرق/الجنوب الشرقي
الرؤية 10 كم أو أكثر
الغيوم لا تقل 1500 م ولا وجود لمزنة ركامية السحاب الأسود
أصبح
من 24 الساعة 03 UTC إلى 24 الساعة 05 UTC
ريح 10 عقدة من الشمال تتزايد حتى 22 عقدة
الرؤية: 6000 متر
مؤقت
من 24 الساعة 07 UTC إلى 24 الساعة 15 UTC
الرؤية: 3000 متر
رمل

TAF: HEMA 231700Z 2318/2424 12008KT CAVOK BECMG 2403/2405 36010G22KT 6000 NSC TEMPO 2407/2415 3000 SA

أرصاد الطقس والتوقعات من أكثر من 4000 مطار (تقارير الطقس للمطار METAR والتنبؤ بالطقس بالمطارTAF).

المحطات المتاحة هي النقط الصفراء والحمراء على الخريطة.

حرك المؤشر فوق النقطة لمعرفة اسم المحطة.

ثم انقر لمعرفة أرصاد وتوقعات الطقس.

لتغيير الخارطة: اضغط على الأزرار الخضراء مع رمز الصليب الأسود للتكبير. على الزر الأخضر مع شرطة للتصغير، أو على الأسهم الخضراء للخرائط المجاورة.


METAR-TAF: